Clare Christine — V2DT7 — position and weather

sailwx.info

Track history (hours):
 
Tides and Currents Weather Stations Pressure Air Temp Water Temp Dewpoint Dewpoint Depression Visibility Wind Speed Wind Dir Waves Ship Positions

Clare Christine

Last reported at 2016-Aug-24 21:07 UTC. Time now 2016-Aug-24 23:16 UTC.
Position N 55°40' E 011°06'.

Length 89 m; draft 3.5 m.

Type: Cargo ship. MMSI: 305379000.

Date/timePositionNaut miles runAvg speedWind from/ knotsBaromVisibWave heightAir tempDewpointWater temp
2016-Aug-24 21:07N 55°40' E 011°06'0 0.0
2016-Aug-24 20:33N 55°40' E 011°06'0 0.0
2016-Aug-24 18:28N 55°40' E 011°06'0 0.0
2016-Aug-24 17:04N 55°40' E 011°06'0 0.0
2016-Aug-24 13:26N 55°40' E 011°06'0 0.0
2016-Aug-24 11:15N 55°40' E 011°06'0 0.0
2016-Aug-24 10:30N 55°40' E 011°06'0 0.0
2016-Aug-24 09:17N 55°40' E 011°06'0 0.0
2016-Aug-24 08:22N 55°40' E 011°06'0 0.0
2016-Aug-24 07:26N 55°40' E 011°06'0 0.0
2016-Aug-24 06:19N 55°40' E 011°06'0 0.0
2016-Aug-24 04:27N 55°40' E 011°06'0 0.0
2016-Aug-24 03:23N 55°40' E 011°06'  
2016-Aug-21 02:17N 55°40' E 011°06'  
2016-Aug-17 23:30N 55°33' E 009°44'29 1.8
2016-Aug-17 07:26N 55°39' E 010°34'9 7.9
2016-Aug-17 06:15N 55°36' E 010°50'710.2
2016-Aug-17 05:33N 55°29' E 010°55'1210.5
2016-Aug-17 04:25N 55°18' E 011°03'8 9.6
2016-Aug-17 03:33N 55°10' E 011°04'1010.4
2016-Aug-17 02:33N 54°59' E 011°02'1010.2
2016-Aug-17 01:33N 54°51' E 010°53'10 9.8
2016-Aug-17 00:33N 54°41' E 010°57'1010.3
2016-Aug-16 23:33N 54°36' E 011°12'1010.4
2016-Aug-16 22:33N 54°31' E 011°28'1010.1
2016-Aug-16 21:33N 54°27' E 011°44'1010.2
2016-Aug-16 20:33N 54°27' E 012°01'8 8.4
2016-Aug-16 19:33N 54°32' E 012°12'9 9.0
2016-Aug-16 18:33N 54°39' E 012°21'4210.0
2016-Aug-16 14:23N 54°57' E 013°28'8 9.8
2016-Aug-16 13:33N 54°60' E 013°41'10 9.6
2016-Aug-16 12:33N 55°03' E 013°56'10 9.8
2016-Aug-16 11:33N 55°09' E 014°10'1110.3
2016-Aug-16 10:28N 55°18' E 014°22'910.1
2016-Aug-16 09:34N 55°24' E 014°33'10 9.7
2016-Aug-16 08:34N 55°31' E 014°46'10 9.8
2016-Aug-16 07:34N 55°35' E 015°02'30 9.6
2016-Aug-16 04:26N 55°44' E 015°52'910.0
2016-Aug-16 03:34N 55°46' E 016°07'  
Track history (hours):
 
Tides and Currents Weather Stations Pressure Air Temp Water Temp Dewpoint Dewpoint Depression Visibility Wind Speed Wind Dir Waves Ship Positions

Clare Christine

Last reported at 2016-Aug-24 21:07 UTC. Time now 2016-Aug-24 23:16 UTC.
Position N 55°40' E 011°06'.

Length 89 m; draft 3.5 m.

Type: Cargo ship. MMSI: 305379000.

Date/timePositionNaut miles runAvg speedWind from/ knotsBaromVisibWave heightAir tempDewpointWater temp
2016-Aug-24 21:07N 55°40' E 011°06'0 0.0
2016-Aug-24 20:33N 55°40' E 011°06'0 0.0
2016-Aug-24 18:28N 55°40' E 011°06'0 0.0
2016-Aug-24 17:04N 55°40' E 011°06'0 0.0
2016-Aug-24 13:26N 55°40' E 011°06'0 0.0
2016-Aug-24 11:15N 55°40' E 011°06'0 0.0
2016-Aug-24 10:30N 55°40' E 011°06'0 0.0
2016-Aug-24 09:17N 55°40' E 011°06'0 0.0
2016-Aug-24 08:22N 55°40' E 011°06'0 0.0
2016-Aug-24 07:26N 55°40' E 011°06'0 0.0
2016-Aug-24 06:19N 55°40' E 011°06'0 0.0
2016-Aug-24 04:27N 55°40' E 011°06'0 0.0
2016-Aug-24 03:23N 55°40' E 011°06'  
2016-Aug-21 02:17N 55°40' E 011°06'  
2016-Aug-17 23:30N 55°33' E 009°44'29 1.8
2016-Aug-17 07:26N 55°39' E 010°34'9 7.9
2016-Aug-17 06:15N 55°36' E 010°50'710.2
2016-Aug-17 05:33N 55°29' E 010°55'1210.5
2016-Aug-17 04:25N 55°18' E 011°03'8 9.6
2016-Aug-17 03:33N 55°10' E 011°04'1010.4
2016-Aug-17 02:33N 54°59' E 011°02'1010.2
2016-Aug-17 01:33N 54°51' E 010°53'10 9.8
2016-Aug-17 00:33N 54°41' E 010°57'1010.3
2016-Aug-16 23:33N 54°36' E 011°12'1010.4
2016-Aug-16 22:33N 54°31' E 011°28'1010.1
2016-Aug-16 21:33N 54°27' E 011°44'1010.2
2016-Aug-16 20:33N 54°27' E 012°01'8 8.4
2016-Aug-16 19:33N 54°32' E 012°12'9 9.0
2016-Aug-16 18:33N 54°39' E 012°21'4210.0
2016-Aug-16 14:23N 54°57' E 013°28'8 9.8
2016-Aug-16 13:33N 54°60' E 013°41'10 9.6
2016-Aug-16 12:33N 55°03' E 013°56'10 9.8
2016-Aug-16 11:33N 55°09' E 014°10'1110.3
2016-Aug-16 10:28N 55°18' E 014°22'910.1
2016-Aug-16 09:34N 55°24' E 014°33'10 9.7
2016-Aug-16 08:34N 55°31' E 014°46'10 9.8
2016-Aug-16 07:34N 55°35' E 015°02'30 9.6
2016-Aug-16 04:26N 55°44' E 015°52'910.0
2016-Aug-16 03:34N 55°46' E 016°07'  

Dump ship's entire track history